Time;durP1;ratioP1;P1;durP2;ratioP2;P2;SDS_P1;SDS_P2;PMS_P1;PMS_P2;Temp;Humidity;BMP_temperature;BMP_pressure;BME280_temperature;BME280_humidity;BME280_pressure;Samples;Min_cycle;Max_cycle;Signal;HPM_P1;HPM_P2
2022/02/16 00:00:11;;;;;;;;;;;23.10;27.80;;;;;;494237;241;1122;-74
2022/02/16 00:02:12;;;;;;;;;;;23.10;27.80;;;;;;494280;241;2115;-74
2022/02/16 00:04:13;;;;;;;;;;;23.10;27.80;;;;;;494267;241;1099;-74
2022/02/16 00:06:15;;;;;;;;;;;23.10;27.70;;;;;;494211;241;1366;-74
2022/02/16 00:08:16;;;;;;;;;;;23.10;27.70;;;;;;494193;241;1154;-74
2022/02/16 00:10:17;;;;;;;;;;;23.20;27.70;;;;;;494235;241;964;-74
2022/02/16 00:12:19;;;;;;;;;;;23.10;27.70;;;;;;494148;241;1152;-74
2022/02/16 00:14:20;;;;;;;;;;;23.10;27.70;;;;;;494275;241;1147;-74
2022/02/16 00:16:21;;;;;;;;;;;23.10;27.60;;;;;;494080;241;1190;-74
2022/02/16 00:18:23;;;;;;;;;;;23.10;27.60;;;;;;494209;241;1036;-74
2022/02/16 00:20:24;;;;;;;;;;;23.10;27.70;;;;;;494207;241;1224;-74
2022/02/16 00:22:25;;;;;;;;;;;23.10;27.70;;;;;;494265;241;2127;-74
2022/02/16 00:24:27;;;;;;;;;;;23.10;27.60;;;;;;494258;241;1216;-74
2022/02/16 00:26:28;;;;;;;;;;;23.10;27.60;;;;;;494109;241;1204;-74
2022/02/16 00:28:30;;;;;;;;;;;23.10;27.70;;;;;;494192;241;1054;-74
2022/02/16 00:30:31;;;;;;;;;;;23.10;27.60;;;;;;494180;241;1152;-74
2022/02/16 00:32:32;;;;;;;;;;;23.10;27.50;;;;;;494200;241;1078;-74
2022/02/16 00:34:34;;;;;;;;;;;23.10;27.60;;;;;;494222;241;937;-74
2022/02/16 00:36:35;;;;;;;;;;;23.20;27.60;;;;;;494257;241;1147;-74
2022/02/16 00:38:36;;;;;;;;;;;23.10;27.50;;;;;;494230;241;1171;-74
2022/02/16 00:40:38;;;;;;;;;;;23.10;27.50;;;;;;494219;241;1191;-74
2022/02/16 00:42:39;;;;;;;;;;;23.10;27.60;;;;;;494154;241;2123;-74
2022/02/16 00:44:40;;;;;;;;;;;23.10;27.60;;;;;;494233;241;943;-74
2022/02/16 00:46:42;;;;;;;;;;;23.10;27.60;;;;;;494125;241;1146;-74
2022/02/16 00:48:43;;;;;;;;;;;23.10;27.50;;;;;;494267;241;926;-74
2022/02/16 00:50:44;;;;;;;;;;;23.10;27.50;;;;;;494242;241;1215;-74
2022/02/16 00:52:46;;;;;;;;;;;23.10;27.50;;;;;;494384;241;1112;-75
2022/02/16 00:54:47;;;;;;;;;;;23.10;27.50;;;;;;494294;241;1169;-74
2022/02/16 00:56:48;;;;;;;;;;;23.10;27.50;;;;;;494270;241;1205;-74
2022/02/16 00:58:50;;;;;;;;;;;23.10;27.50;;;;;;494283;241;937;-74
2022/02/16 01:00:51;;;;;;;;;;;23.10;27.40;;;;;;494184;241;1215;-74
2022/02/16 01:02:52;;;;;;;;;;;23.10;27.40;;;;;;494276;241;2123;-74
2022/02/16 01:04:54;;;;;;;;;;;23.20;27.30;;;;;;494209;241;947;-74
2022/02/16 01:06:55;;;;;;;;;;;23.20;27.40;;;;;;494290;241;1215;-74
2022/02/16 01:08:56;;;;;;;;;;;23.10;27.30;;;;;;494243;241;1113;-74
2022/02/16 01:10:58;;;;;;;;;;;23.00;27.40;;;;;;494213;241;1196;-74
2022/02/16 01:12:59;;;;;;;;;;;23.00;27.40;;;;;;494171;241;1088;-74
2022/02/16 01:15:00;;;;;;;;;;;23.10;27.40;;;;;;494236;241;968;-74
2022/02/16 01:17:02;;;;;;;;;;;23.10;27.30;;;;;;494106;241;1124;-74
2022/02/16 01:19:03;;;;;;;;;;;23.10;27.30;;;;;;494202;241;960;-74
2022/02/16 01:21:04;;;;;;;;;;;23.10;27.30;;;;;;494225;241;1256;-74
2022/02/16 01:23:05;;;;;;;;;;;23.00;27.20;;;;;;494228;241;2140;-74
2022/02/16 01:25:07;;;;;;;;;;;23.10;27.20;;;;;;494245;241;1160;-74
2022/02/16 01:27:08;;;;;;;;;;;23.10;27.20;;;;;;494153;241;1105;-74
2022/02/16 01:29:10;;;;;;;;;;;23.10;27.20;;;;;;494239;241;1160;-74
2022/02/16 01:31:11;;;;;;;;;;;23.10;27.10;;;;;;494220;241;1188;-74
2022/02/16 01:33:12;;;;;;;;;;;23.10;27.10;;;;;;494328;241;1082;-74
2022/02/16 01:35:14;;;;;;;;;;;23.10;27.10;;;;;;494255;241;1161;-74
2022/02/16 01:37:15;;;;;;;;;;;23.10;27.00;;;;;;494231;241;1073;-74
2022/02/16 01:39:16;;;;;;;;;;;23.10;27.00;;;;;;494174;241;1136;-74
2022/02/16 01:41:17;;;;;;;;;;;23.10;27.00;;;;;;494199;241;1196;-74
2022/02/16 01:43:19;;;;;;;;;;;23.10;27.00;;;;;;494382;241;1191;-74
2022/02/16 01:45:20;;;;;;;;;;;23.10;27.00;;;;;;494282;241;1197;-74
2022/02/16 01:47:21;;;;;;;;;;;23.10;26.90;;;;;;494046;241;1138;-74
2022/02/16 01:49:23;;;;;;;;;;;23.20;26.80;;;;;;494150;241;972;-74
2022/02/16 01:51:24;;;;;;;;;;;23.10;26.80;;;;;;494141;241;1357;-74
2022/02/16 01:53:26;;;;;;;;;;;23.10;26.80;;;;;;494090;241;1102;-74
2022/02/16 01:55:27;;;;;;;;;;;23.20;26.70;;;;;;494195;241;1189;-74
2022/02/16 01:57:28;;;;;;;;;;;23.20;26.70;;;;;;494260;241;1047;-74
2022/02/16 01:59:30;;;;;;;;;;;23.10;26.60;;;;;;494241;241;933;-74
2022/02/16 02:01:31;;;;;;;;;;;23.10;26.70;;;;;;494103;241;2142;-74
2022/02/16 02:03:32;;;;;;;;;;;23.00;26.60;;;;;;494205;241;950;-74
2022/02/16 02:05:34;;;;;;;;;;;23.10;26.60;;;;;;494205;241;1250;-74
2022/02/16 02:07:35;;;;;;;;;;;23.20;26.50;;;;;;494250;241;1211;-74
2022/02/16 02:09:36;;;;;;;;;;;23.10;26.50;;;;;;494158;241;1133;-74
2022/02/16 02:11:38;;;;;;;;;;;23.10;26.50;;;;;;494183;241;1194;-74
2022/02/16 02:13:39;;;;;;;;;;;23.10;26.40;;;;;;494252;241;1013;-74
2022/02/16 02:15:40;;;;;;;;;;;23.00;26.50;;;;;;494244;241;1210;-74
2022/02/16 02:17:42;;;;;;;;;;;23.10;26.40;;;;;;494285;241;1160;-74
2022/02/16 02:19:43;;;;;;;;;;;23.10;26.40;;;;;;494265;241;952;-74
2022/02/16 02:21:44;;;;;;;;;;;23.10;26.40;;;;;;494264;241;2199;-74
2022/02/16 02:23:46;;;;;;;;;;;23.00;26.40;;;;;;494290;241;1111;-74
2022/02/16 02:25:47;;;;;;;;;;;23.10;26.40;;;;;;494223;241;1210;-74
2022/02/16 02:27:48;;;;;;;;;;;23.00;26.40;;;;;;494220;241;1061;-74
2022/02/16 02:29:50;;;;;;;;;;;23.10;26.30;;;;;;494287;241;963;-74
2022/02/16 02:31:52;;;;;;;;;;;23.10;26.30;;;;;;494279;241;1160;-74
2022/02/16 02:33:52;;;;;;;;;;;23.10;26.30;;;;;;494286;241;1420;-74
2022/02/16 02:35:54;;;;;;;;;;;23.10;26.30;;;;;;494232;241;1273;-74
2022/02/16 02:37:55;;;;;;;;;;;23.10;26.20;;;;;;494230;241;1159;-74
2022/02/16 02:39:56;;;;;;;;;;;23.10;26.20;;;;;;494246;241;1188;-74
2022/02/16 02:41:58;;;;;;;;;;;23.10;26.20;;;;;;494240;241;2116;-74
2022/02/16 02:43:59;;;;;;;;;;;23.10;26.20;;;;;;494225;241;1091;-74
2022/02/16 02:46:00;;;;;;;;;;;23.20;26.20;;;;;;494212;241;1184;-74
2022/02/16 02:48:02;;;;;;;;;;;23.10;26.20;;;;;;494351;241;1325;-74
2022/02/16 02:50:03;;;;;;;;;;;23.20;26.10;;;;;;494243;241;926;-74
2022/02/16 02:52:04;;;;;;;;;;;23.20;26.10;;;;;;494293;241;1148;-74
2022/02/16 02:54:06;;;;;;;;;;;23.20;26.00;;;;;;494270;241;935;-74
2022/02/16 02:56:07;;;;;;;;;;;23.20;26.10;;;;;;494256;241;1280;-74
2022/02/16 02:58:09;;;;;;;;;;;23.10;26.10;;;;;;494390;241;1071;-74
2022/02/16 03:00:10;;;;;;;;;;;23.10;26.10;;;;;;494250;241;946;-74
2022/02/16 03:02:11;;;;;;;;;;;23.20;26.10;;;;;;494284;241;2190;-74
2022/02/16 03:04:12;;;;;;;;;;;23.10;26.00;;;;;;494211;241;962;-74
2022/02/16 03:06:14;;;;;;;;;;;23.10;26.00;;;;;;494178;241;1232;-74
2022/02/16 03:08:15;;;;;;;;;;;23.10;26.10;;;;;;494222;241;1130;-74
2022/02/16 03:10:16;;;;;;;;;;;23.10;26.10;;;;;;494162;241;1172;-74
2022/02/16 03:12:18;;;;;;;;;;;23.10;26.00;;;;;;494170;241;1176;-74
2022/02/16 03:14:19;;;;;;;;;;;23.10;26.00;;;;;;494198;241;942;-74
2022/02/16 03:16:20;;;;;;;;;;;23.10;26.00;;;;;;494168;241;1179;-74
2022/02/16 03:18:22;;;;;;;;;;;23.10;26.00;;;;;;494360;241;1476;-74
2022/02/16 03:20:23;;;;;;;;;;;23.10;26.00;;;;;;494217;241;944;-74
2022/02/16 03:22:24;;;;;;;;;;;23.00;26.00;;;;;;494224;241;2191;-74
2022/02/16 03:24:26;;;;;;;;;;;23.10;26.00;;;;;;494166;241;935;-74
2022/02/16 03:26:27;;;;;;;;;;;23.00;26.00;;;;;;494258;241;1185;-74
2022/02/16 03:28:28;;;;;;;;;;;23.00;26.10;;;;;;494208;241;1093;-74
2022/02/16 03:30:30;;;;;;;;;;;23.00;26.10;;;;;;494194;241;978;-74
2022/02/16 03:32:31;;;;;;;;;;;23.00;26.10;;;;;;494097;241;1053;-74
2022/02/16 03:34:32;;;;;;;;;;;23.00;26.10;;;;;;494168;241;981;-74
2022/02/16 03:36:34;;;;;;;;;;;23.00;26.10;;;;;;494285;241;1205;-74
2022/02/16 03:38:35;;;;;;;;;;;23.00;26.10;;;;;;494396;241;1092;-75
2022/02/16 03:40:36;;;;;;;;;;;23.00;26.00;;;;;;494158;241;1156;-74
2022/02/16 03:42:38;;;;;;;;;;;23.10;26.10;;;;;;494191;241;2107;-74
2022/02/16 03:44:39;;;;;;;;;;;23.10;26.10;;;;;;494277;241;1198;-74
2022/02/16 03:46:40;;;;;;;;;;;23.00;26.10;;;;;;494099;241;1472;-74
2022/02/16 03:48:42;;;;;;;;;;;23.00;26.10;;;;;;494278;241;1119;-74
2022/02/16 03:50:43;;;;;;;;;;;23.10;26.10;;;;;;494206;241;942;-74
2022/02/16 03:52:44;;;;;;;;;;;23.10;26.10;;;;;;494306;241;1177;-74
2022/02/16 03:54:46;;;;;;;;;;;23.10;26.10;;;;;;494244;241;1101;-74
2022/02/16 03:56:47;;;;;;;;;;;23.00;26.00;;;;;;494109;241;1208;-74
2022/02/16 03:58:48;;;;;;;;;;;23.10;26.10;;;;;;494251;241;1016;-74
2022/02/16 04:00:50;;;;;;;;;;;23.00;26.10;;;;;;494238;241;1232;-74
2022/02/16 04:02:51;;;;;;;;;;;23.10;26.10;;;;;;494289;241;2111;-74
2022/02/16 04:04:52;;;;;;;;;;;23.10;26.00;;;;;;494257;241;982;-74
2022/02/16 04:06:54;;;;;;;;;;;23.20;26.10;;;;;;494147;241;1185;-74
2022/02/16 04:08:55;;;;;;;;;;;23.20;26.00;;;;;;494173;241;1134;-74
2022/02/16 04:10:56;;;;;;;;;;;23.10;26.10;;;;;;494262;241;1219;-74
2022/02/16 04:12:58;;;;;;;;;;;23.10;26.10;;;;;;494170;241;1043;-74
2022/02/16 04:14:59;;;;;;;;;;;23.10;26.10;;;;;;494220;241;1041;-74
2022/02/16 04:17:00;;;;;;;;;;;23.10;26.20;;;;;;494279;241;1222;-74
2022/02/16 04:19:02;;;;;;;;;;;23.10;26.20;;;;;;494220;241;1128;-74
2022/02/16 04:21:03;;;;;;;;;;;23.10;26.20;;;;;;494120;241;1267;-74
2022/02/16 04:23:05;;;;;;;;;;;23.10;26.10;;;;;;494187;241;2174;-74
2022/02/16 04:25:06;;;;;;;;;;;23.10;26.20;;;;;;494404;241;1255;-74
2022/02/16 04:27:07;;;;;;;;;;;23.10;26.10;;;;;;494219;241;1077;-74
2022/02/16 04:29:08;;;;;;;;;;;23.20;26.20;;;;;;494203;241;1080;-74
2022/02/16 04:31:10;;;;;;;;;;;23.00;26.20;;;;;;494140;241;1192;-74
2022/02/16 04:33:11;;;;;;;;;;;23.00;26.20;;;;;;494118;241;1067;-74
2022/02/16 04:35:12;;;;;;;;;;;23.10;26.20;;;;;;494182;241;988;-74
2022/02/16 04:37:14;;;;;;;;;;;23.10;26.10;;;;;;494282;241;1197;-74
2022/02/16 04:39:16;;;;;;;;;;;23.10;26.20;;;;;;494300;241;1092;-74
2022/02/16 04:41:17;;;;;;;;;;;23.20;26.20;;;;;;494146;238;1305;-74
2022/02/16 04:43:18;;;;;;;;;;;23.10;26.20;;;;;;494332;241;2119;-74
2022/02/16 04:45:20;;;;;;;;;;;23.10;26.20;;;;;;494206;241;943;-74
2022/02/16 04:47:21;;;;;;;;;;;23.10;26.20;;;;;;494147;241;1045;-74
2022/02/16 04:49:22;;;;;;;;;;;23.10;26.20;;;;;;494236;241;1015;-74
2022/02/16 04:51:24;;;;;;;;;;;23.10;26.20;;;;;;494140;241;1179;-74
2022/02/16 04:53:27;;;;;;;;;;;23.10;26.20;;;;;;494127;241;948;-74
2022/02/16 04:55:27;;;;;;;;;;;23.10;26.20;;;;;;494006;241;1541;-75
2022/02/16 04:57:28;;;;;;;;;;;23.10;26.20;;;;;;494200;241;1060;-74
2022/02/16 04:59:29;;;;;;;;;;;23.10;26.20;;;;;;494232;241;1037;-74
2022/02/16 05:01:31;;;;;;;;;;;23.10;26.20;;;;;;494129;241;1260;-74
2022/02/16 05:03:32;;;;;;;;;;;23.00;26.20;;;;;;494178;241;2120;-74
2022/02/16 05:05:33;;;;;;;;;;;23.10;26.20;;;;;;494151;241;934;-74
2022/02/16 05:07:35;;;;;;;;;;;23.10;26.20;;;;;;494138;241;1162;-74
2022/02/16 05:09:36;;;;;;;;;;;23.10;26.20;;;;;;494310;241;1034;-74
2022/02/16 05:11:37;;;;;;;;;;;23.10;26.20;;;;;;494152;241;1180;-74
2022/02/16 05:13:39;;;;;;;;;;;23.10;26.20;;;;;;494275;241;1090;-74
2022/02/16 05:15:40;;;;;;;;;;;23.10;26.20;;;;;;494101;241;920;-74
2022/02/16 05:17:41;;;;;;;;;;;23.10;26.20;;;;;;494090;241;1173;-74
2022/02/16 05:19:43;;;;;;;;;;;23.20;26.20;;;;;;494051;241;1123;-74
2022/02/16 05:21:44;;;;;;;;;;;23.20;26.20;;;;;;494034;241;1307;-74
2022/02/16 05:23:45;;;;;;;;;;;23.10;26.20;;;;;;494132;241;2110;-74
2022/02/16 05:25:47;;;;;;;;;;;23.10;26.20;;;;;;494100;241;1137;-74
2022/02/16 05:27:48;;;;;;;;;;;23.10;26.30;;;;;;494181;241;1125;-75
2022/02/16 05:29:49;;;;;;;;;;;23.10;26.20;;;;;;494040;241;1076;-74
2022/02/16 05:31:51;;;;;;;;;;;23.10;26.20;;;;;;494170;241;1076;-75
2022/02/16 05:33:52;;;;;;;;;;;23.20;26.20;;;;;;494107;241;986;-74
2022/02/16 05:35:53;;;;;;;;;;;23.20;26.20;;;;;;493956;241;1025;-74
2022/02/16 05:37:55;;;;;;;;;;;23.20;26.20;;;;;;494040;241;1128;-74
2022/02/16 05:39:56;;;;;;;;;;;23.20;26.10;;;;;;494033;241;975;-74
2022/02/16 05:41:57;;;;;;;;;;;23.20;26.10;;;;;;494038;241;1154;-74
2022/02/16 05:43:59;;;;;;;;;;;23.20;26.10;;;;;;494014;241;2111;-74
2022/02/16 05:46:00;;;;;;;;;;;23.20;26.10;;;;;;494063;241;1089;-74
2022/02/16 05:48:01;;;;;;;;;;;23.10;26.10;;;;;;493914;241;1026;-74
2022/02/16 05:50:03;;;;;;;;;;;23.20;26.10;;;;;;493986;241;980;-74
2022/02/16 05:52:04;;;;;;;;;;;23.20;26.10;;;;;;493949;241;1159;-74
2022/02/16 05:54:05;;;;;;;;;;;23.20;26.10;;;;;;493998;241;918;-74
2022/02/16 05:56:07;;;;;;;;;;;23.10;26.10;;;;;;493931;241;1101;-74
2022/02/16 05:58:08;;;;;;;;;;;23.10;26.10;;;;;;493842;241;1215;-74
2022/02/16 06:00:09;;;;;;;;;;;23.20;26.10;;;;;;494031;241;1021;-75
2022/02/16 06:02:11;;;;;;;;;;;23.20;26.10;;;;;;493858;241;1089;-74
2022/02/16 06:04:15;;;;;;;;;;;23.20;26.10;;;;;;493865;241;2183;-74
2022/02/16 06:06:16;;;;;;;;;;;23.20;26.00;;;;;;493702;241;1305;-74
2022/02/16 06:08:15;;;;;;;;;;;23.10;26.00;;;;;;493698;241;1496;-74
2022/02/16 06:10:16;;;;;;;;;;;23.20;26.10;;;;;;493992;241;1174;-74
2022/02/16 06:12:17;;;;;;;;;;;23.20;26.00;;;;;;493896;241;1150;-74
2022/02/16 06:14:19;;;;;;;;;;;23.20;26.00;;;;;;493833;241;975;-74
2022/02/16 06:16:20;;;;;;;;;;;23.20;26.00;;;;;;493987;241;1253;-74
2022/02/16 06:18:21;;;;;;;;;;;23.30;26.00;;;;;;493928;241;1104;-74
2022/02/16 06:20:22;;;;;;;;;;;23.30;26.00;;;;;;493917;241;1222;-74
2022/02/16 06:22:24;;;;;;;;;;;23.30;25.90;;;;;;493803;241;1068;-74
2022/02/16 06:24:25;;;;;;;;;;;23.30;25.90;;;;;;494054;241;2107;-74
2022/02/16 06:26:27;;;;;;;;;;;23.20;26.00;;;;;;493791;241;1187;-74
2022/02/16 06:28:28;;;;;;;;;;;23.30;25.90;;;;;;493816;241;1282;-74
2022/02/16 06:30:29;;;;;;;;;;;23.30;26.00;;;;;;493793;241;1229;-74
2022/02/16 06:32:31;;;;;;;;;;;23.30;25.90;;;;;;493736;241;1157;-74
2022/02/16 06:34:32;;;;;;;;;;;23.20;25.90;;;;;;493651;241;1143;-74
2022/02/16 06:36:33;;;;;;;;;;;23.20;25.90;;;;;;493935;241;1132;-74
2022/02/16 06:38:35;;;;;;;;;;;23.30;25.90;;;;;;493881;241;1080;-74
2022/02/16 06:40:36;;;;;;;;;;;23.30;25.90;;;;;;493865;241;977;-74
2022/02/16 06:42:37;;;;;;;;;;;23.30;25.90;;;;;;493794;241;1033;-74
2022/02/16 06:44:39;;;;;;;;;;;23.30;25.90;;;;;;493798;241;2113;-74
2022/02/16 06:46:41;;;;;;;;;;;23.30;25.90;;;;;;493700;241;1203;-74
2022/02/16 06:48:41;;;;;;;;;;;23.20;25.90;;;;;;493723;241;1323;-74
2022/02/16 06:50:45;;;;;;;;;;;23.20;25.90;;;;;;493839;241;1282;-74
2022/02/16 06:52:45;;;;;;;;;;;23.20;25.90;;;;;;493904;241;1299;-74
2022/02/16 06:54:46;;;;;;;;;;;23.20;25.90;;;;;;493780;241;1019;-74
2022/02/16 06:56:47;;;;;;;;;;;23.10;25.90;;;;;;493661;241;1223;-74
2022/02/16 06:58:49;;;;;;;;;;;23.20;25.90;;;;;;493876;241;1169;-74
2022/02/16 07:00:50;;;;;;;;;;;23.20;25.90;;;;;;493756;241;1212;-74
2022/02/16 07:02:51;;;;;;;;;;;23.30;25.90;;;;;;493692;241;1056;-74
2022/02/16 07:04:53;;;;;;;;;;;23.20;25.80;;;;;;493778;241;2174;-74
2022/02/16 07:06:54;;;;;;;;;;;23.20;25.80;;;;;;493794;241;1151;-74
2022/02/16 07:08:55;;;;;;;;;;;23.30;25.80;;;;;;493720;241;1149;-74
2022/02/16 07:10:57;;;;;;;;;;;23.30;25.80;;;;;;493539;241;1353;-74
2022/02/16 07:12:58;;;;;;;;;;;23.30;25.80;;;;;;493593;241;1084;-74
2022/02/16 07:14:59;;;;;;;;;;;23.20;25.80;;;;;;493571;241;956;-74
2022/02/16 07:17:01;;;;;;;;;;;23.30;25.80;;;;;;493520;241;1159;-74
2022/02/16 07:19:02;;;;;;;;;;;23.20;25.80;;;;;;493158;241;1242;-74
2022/02/16 07:21:03;;;;;;;;;;;23.30;25.80;;;;;;493446;241;1197;-74
2022/02/16 07:23:06;;;;;;;;;;;23.30;25.80;;;;;;493587;241;1077;-74
2022/02/16 07:25:06;;;;;;;;;;;23.20;25.70;;;;;;493466;241;2104;-74
2022/02/16 07:27:08;;;;;;;;;;;23.30;25.80;;;;;;493463;241;1184;-75
2022/02/16 07:29:09;;;;;;;;;;;23.40;25.80;;;;;;493398;241;1226;-75
2022/02/16 07:31:10;;;;;;;;;;;23.20;25.70;;;;;;493477;241;1216;-74
2022/02/16 07:33:12;;;;;;;;;;;23.20;25.80;;;;;;493484;241;1202;-74
2022/02/16 07:35:13;;;;;;;;;;;23.30;25.80;;;;;;493360;241;993;-74
2022/02/16 07:37:15;;;;;;;;;;;23.20;25.80;;;;;;493267;241;1139;-74
2022/02/16 07:39:16;;;;;;;;;;;23.30;25.80;;;;;;493274;241;989;-74
2022/02/16 07:41:18;;;;;;;;;;;23.20;25.80;;;;;;493468;241;1158;-74
2022/02/16 07:43:19;;;;;;;;;;;23.30;25.80;;;;;;493601;241;1141;-74
2022/02/16 07:45:20;;;;;;;;;;;23.30;25.80;;;;;;493428;241;2166;-75
2022/02/16 07:47:21;;;;;;;;;;;23.30;25.80;;;;;;493316;241;1151;-75
2022/02/16 07:49:23;;;;;;;;;;;23.30;25.80;;;;;;493280;241;1024;-75
2022/02/16 07:51:24;;;;;;;;;;;23.20;25.80;;;;;;493431;241;1183;-74
2022/02/16 07:53:25;;;;;;;;;;;23.10;25.80;;;;;;493346;241;1020;-74
2022/02/16 07:55:27;;;;;;;;;;;23.20;25.90;;;;;;493404;241;1070;-74
2022/02/16 07:57:28;;;;;;;;;;;23.10;25.90;;;;;;493341;241;1193;-75
2022/02/16 07:59:29;;;;;;;;;;;23.00;25.90;;;;;;493626;241;1154;-74
2022/02/16 08:01:31;;;;;;;;;;;23.00;25.90;;;;;;493471;241;1318;-74
2022/02/16 08:03:32;;;;;;;;;;;23.00;26.00;;;;;;493536;241;1146;-74
2022/02/16 08:05:33;;;;;;;;;;;23.00;25.90;;;;;;493517;241;2167;-74
2022/02/16 08:07:35;;;;;;;;;;;23.00;25.90;;;;;;493434;241;1161;-75
2022/02/16 08:09:36;;;;;;;;;;;23.00;26.00;;;;;;493369;241;1421;-74
2022/02/16 08:11:37;;;;;;;;;;;23.00;26.00;;;;;;493325;241;1192;-74
2022/02/16 08:13:39;;;;;;;;;;;22.90;26.00;;;;;;493606;241;1208;-74
2022/02/16 08:15:40;;;;;;;;;;;23.00;26.10;;;;;;493471;241;1201;-74
2022/02/16 08:17:42;;;;;;;;;;;22.90;26.00;;;;;;493502;241;1252;-74
2022/02/16 08:19:43;;;;;;;;;;;23.00;26.10;;;;;;493431;241;1046;-74
2022/02/16 08:21:45;;;;;;;;;;;23.00;26.10;;;;;;493198;241;1245;-74
2022/02/16 08:23:45;;;;;;;;;;;23.00;26.00;;;;;;493299;241;2174;-74
2022/02/16 08:25:47;;;;;;;;;;;23.10;26.00;;;;;;493300;241;1289;-74
2022/02/16 08:27:48;;;;;;;;;;;23.00;26.10;;;;;;493456;241;1131;-74
2022/02/16 08:29:49;;;;;;;;;;;23.10;26.00;;;;;;493275;241;1052;-74
2022/02/16 08:31:51;;;;;;;;;;;23.00;26.10;;;;;;493550;241;1243;-75
2022/02/16 08:33:52;;;;;;;;;;;23.00;26.20;;;;;;493327;241;1035;-74
2022/02/16 08:35:53;;;;;;;;;;;23.00;26.20;;;;;;493338;241;1143;-74
2022/02/16 08:37:55;;;;;;;;;;;22.90;26.10;;;;;;493386;241;1096;-74
2022/02/16 08:39:56;;;;;;;;;;;23.00;26.20;;;;;;492993;241;1125;-74
2022/02/16 08:41:57;;;;;;;;;;;23.00;26.10;;;;;;492998;241;1281;-74
2022/02/16 08:43:59;;;;;;;;;;;23.00;26.10;;;;;;493368;241;2178;-74
2022/02/16 08:46:00;;;;;;;;;;;23.10;26.10;;;;;;493182;241;1350;-74
2022/02/16 08:48:02;;;;;;;;;;;23.10;26.10;;;;;;493528;241;1101;-74
2022/02/16 08:50:03;;;;;;;;;;;23.00;26.10;;;;;;493177;241;1323;-74
2022/02/16 08:52:04;;;;;;;;;;;23.10;26.10;;;;;;493248;241;1106;-74
2022/02/16 08:54:05;;;;;;;;;;;23.10;26.10;;;;;;493275;241;1133;-74
2022/02/16 08:56:07;;;;;;;;;;;23.10;26.10;;;;;;493247;241;1196;-74
2022/02/16 08:58:09;;;;;;;;;;;23.10;26.10;;;;;;493265;241;1162;-74
2022/02/16 09:00:10;;;;;;;;;;;23.10;26.10;;;;;;493131;241;1384;-74
2022/02/16 09:02:11;;;;;;;;;;;23.10;26.10;;;;;;493293;241;1109;-74
2022/02/16 09:04:12;;;;;;;;;;;23.10;26.10;;;;;;493569;241;2183;-74
2022/02/16 09:06:14;;;;;;;;;;;23.20;26.10;;;;;;493319;241;1566;-74
2022/02/16 09:08:15;;;;;;;;;;;23.00;26.10;;;;;;493196;241;1421;-74
2022/02/16 09:10:16;;;;;;;;;;;23.00;26.20;;;;;;493194;241;963;-74
2022/02/16 09:12:18;;;;;;;;;;;23.00;26.20;;;;;;493332;241;1232;-74
2022/02/16 09:14:19;;;;;;;;;;;23.00;26.20;;;;;;493388;241;1194;-74
2022/02/16 09:16:20;;;;;;;;;;;23.10;26.20;;;;;;493274;241;1079;-74
2022/02/16 09:18:22;;;;;;;;;;;23.00;26.30;;;;;;493457;241;1046;-74
2022/02/16 09:20:23;;;;;;;;;;;23.00;26.30;;;;;;493359;241;1266;-74
2022/02/16 09:22:24;;;;;;;;;;;23.00;26.30;;;;;;493085;241;1209;-74
2022/02/16 09:24:26;;;;;;;;;;;23.00;26.30;;;;;;493262;241;2198;-74
2022/02/16 09:26:31;;;;;;;;;;;23.00;26.30;;;;;;493317;241;1113;-74
2022/02/16 09:28:29;;;;;;;;;;;23.10;26.20;;;;;;493345;241;1273;-74
2022/02/16 09:30:30;;;;;;;;;;;23.10;26.20;;;;;;493285;241;1178;-74
2022/02/16 09:32:32;;;;;;;;;;;23.10;26.20;;;;;;493528;241;1077;-74
2022/02/16 09:34:33;;;;;;;;;;;23.10;26.20;;;;;;493379;241;1069;-74
2022/02/16 09:36:35;;;;;;;;;;;23.10;26.10;;;;;;493464;241;1289;-74
2022/02/16 09:38:35;;;;;;;;;;;23.20;26.10;;;;;;493330;241;1431;-74
2022/02/16 09:40:37;;;;;;;;;;;23.20;26.10;;;;;;493382;241;1185;-74
2022/02/16 09:42:38;;;;;;;;;;;23.20;26.10;;;;;;493438;241;1300;-74
2022/02/16 09:44:40;;;;;;;;;;;23.10;26.10;;;;;;493470;241;2132;-74
2022/02/16 09:46:41;;;;;;;;;;;23.20;26.10;;;;;;493250;241;1168;-74
2022/02/16 09:48:42;;;;;;;;;;;23.20;26.10;;;;;;493243;241;963;-74
2022/02/16 09:50:44;;;;;;;;;;;23.30;26.10;;;;;;493296;241;1090;-74
2022/02/16 09:52:45;;;;;;;;;;;23.30;26.00;;;;;;493612;241;1089;-74
2022/02/16 09:54:46;;;;;;;;;;;23.30;26.10;;;;;;493229;241;1088;-74
2022/02/16 09:56:48;;;;;;;;;;;23.40;26.00;;;;;;493234;241;1145;-74
2022/02/16 09:58:49;;;;;;;;;;;23.40;25.90;;;;;;493352;241;2215;-75
2022/02/16 10:00:51;;;;;;;;;;;23.40;26.00;;;;;;493367;241;970;-74
2022/02/16 10:02:52;;;;;;;;;;;23.50;25.90;;;;;;493313;241;1083;-74
2022/02/16 10:04:53;;;;;;;;;;;23.40;25.90;;;;;;493271;241;2182;-74
2022/02/16 10:06:54;;;;;;;;;;;23.50;25.90;;;;;;493336;241;1201;-74
2022/02/16 10:08:56;;;;;;;;;;;23.40;25.90;;;;;;493250;241;951;-74
2022/02/16 10:10:57;;;;;;;;;;;23.50;25.90;;;;;;493365;241;1140;-74
2022/02/16 10:12:59;;;;;;;;;;;23.50;26.00;;;;;;493310;241;1207;-74
2022/02/16 10:15:00;;;;;;;;;;;23.50;25.90;;;;;;493380;241;1188;-74
2022/02/16 10:17:03;;;;;;;;;;;23.50;25.90;;;;;;493311;241;1281;-74
2022/02/16 10:19:05;;;;;;;;;;;23.50;25.90;;;;;;493212;241;1434;-74
2022/02/16 10:21:04;;;;;;;;;;;23.50;25.90;;;;;;493156;241;1331;-74
2022/02/16 10:23:06;;;;;;;;;;;23.60;26.00;;;;;;493399;241;1073;-74
2022/02/16 10:25:07;;;;;;;;;;;23.60;25.90;;;;;;493158;241;2115;-74
2022/02/16 10:27:09;;;;;;;;;;;23.60;25.90;;;;;;493466;241;1215;-74
2022/02/16 10:29:10;;;;;;;;;;;23.60;25.90;;;;;;493251;241;1175;-74
2022/02/16 10:31:11;;;;;;;;;;;23.70;26.00;;;;;;493412;241;1333;-74
2022/02/16 10:33:12;;;;;;;;;;;23.70;25.90;;;;;;493398;241;1304;-74
2022/02/16 10:35:14;;;;;;;;;;;23.70;26.00;;;;;;493130;241;1152;-74
2022/02/16 10:37:15;;;;;;;;;;;23.60;26.00;;;;;;493539;241;1105;-74
2022/02/16 10:39:16;;;;;;;;;;;23.60;26.00;;;;;;493256;241;1006;-74
2022/02/16 10:41:18;;;;;;;;;;;23.60;26.10;;;;;;493276;241;1231;-74
2022/02/16 10:43:19;;;;;;;;;;;23.70;26.00;;;;;;493370;241;1061;-74
2022/02/16 10:45:21;;;;;;;;;;;23.70;26.00;;;;;;493196;241;2195;-74
2022/02/16 10:47:23;;;;;;;;;;;23.70;26.00;;;;;;493363;241;1042;-74
2022/02/16 10:49:25;;;;;;;;;;;23.70;26.00;;;;;;493374;241;1109;-74
2022/02/16 10:51:25;;;;;;;;;;;23.70;26.10;;;;;;493515;241;1394;-74
2022/02/16 10:53:27;;;;;;;;;;;23.70;26.10;;;;;;493515;241;1034;-74
2022/02/16 10:55:28;;;;;;;;;;;23.80;26.10;;;;;;493412;241;999;-74
2022/02/16 10:57:29;;;;;;;;;;;23.70;26.10;;;;;;493593;241;1151;-74
2022/02/16 10:59:30;;;;;;;;;;;23.80;26.10;;;;;;493219;241;1152;-74
2022/02/16 11:01:32;;;;;;;;;;;23.70;26.10;;;;;;493392;241;1165;-74
2022/02/16 11:03:33;;;;;;;;;;;23.80;26.10;;;;;;493197;241;1121;-74
2022/02/16 11:05:34;;;;;;;;;;;23.80;26.20;;;;;;493257;241;2190;-75
2022/02/16 11:07:36;;;;;;;;;;;23.80;26.30;;;;;;493355;241;1104;-74
2022/02/16 11:09:37;;;;;;;;;;;23.80;26.30;;;;;;493220;241;1070;-74
2022/02/16 11:11:41;;;;;;;;;;;23.80;26.30;;;;;;493271;241;1267;-74
2022/02/16 11:13:40;;;;;;;;;;;23.80;26.40;;;;;;493372;241;1387;-74
2022/02/16 11:15:41;;;;;;;;;;;23.90;26.40;;;;;;493501;237;1178;-74
2022/02/16 11:17:42;;;;;;;;;;;23.90;26.40;;;;;;493615;241;1212;-74
2022/02/16 11:19:46;;;;;;;;;;;23.90;26.40;;;;;;493640;241;1072;-74
2022/02/16 11:21:45;;;;;;;;;;;23.80;26.60;;;;;;493287;241;1402;-74
2022/02/16 11:23:47;;;;;;;;;;;23.60;26.70;;;;;;493181;241;1099;-74
2022/02/16 11:25:48;;;;;;;;;;;23.50;26.90;;;;;;492992;241;2319;-74
2022/02/16 11:27:49;;;;;;;;;;;23.20;27.10;;;;;;493501;241;1135;-74
2022/02/16 11:29:50;;;;;;;;;;;23.10;27.30;;;;;;493251;241;1113;-74
2022/02/16 11:31:52;;;;;;;;;;;23.10;27.40;;;;;;493457;241;1204;-74
2022/02/16 11:33:53;;;;;;;;;;;23.10;27.50;;;;;;493551;241;1314;-74
2022/02/16 11:35:55;;;;;;;;;;;23.00;27.60;;;;;;493163;241;1200;-74
2022/02/16 11:37:56;;;;;;;;;;;22.90;27.70;;;;;;493700;241;1096;-74
2022/02/16 11:39:57;;;;;;;;;;;22.80;27.80;;;;;;493061;241;996;-74
2022/02/16 11:41:59;;;;;;;;;;;22.80;27.90;;;;;;493344;241;1111;-74
2022/02/16 11:44:00;;;;;;;;;;;22.80;27.90;;;;;;493446;241;1202;-74
2022/02/16 11:46:03;;;;;;;;;;;22.80;27.90;;;;;;493388;241;2175;-74
2022/02/16 11:48:03;;;;;;;;;;;22.80;28.10;;;;;;493457;241;1437;-74
2022/02/16 11:50:04;;;;;;;;;;;22.70;28.20;;;;;;493338;241;959;-74
2022/02/16 11:52:05;;;;;;;;;;;22.70;28.30;;;;;;493239;241;1081;-74
2022/02/16 11:54:07;;;;;;;;;;;22.60;28.30;;;;;;493138;241;1230;-74
2022/02/16 11:56:08;;;;;;;;;;;22.60;28.40;;;;;;493203;241;1087;-74